Time;durP1;ratioP1;P1;durP2;ratioP2;P2;SDS_P1;SDS_P2;PMS_P1;PMS_P2;Temp;Humidity;BMP_temperature;BMP_pressure;BME280_temperature;BME280_humidity;BME280_pressure;Samples;Min_cycle;Max_cycle;Signal;HPM_P1;HPM_P2
2022/06/10 04:01:58;;;;;;;12.70;11.45;;;;;;;19.67;100.00;100150.19;5606555;31;80644;-56
2022/06/10 04:05:01;;;;;;;13.55;11.95;;;;;;;19.67;100.00;100150.19;5584274;32;33339;-56
2022/06/10 04:08:04;;;;;;;11.85;10.65;;;;;;;19.17;100.00;100162.34;5583982;31;33602;-56
2022/06/10 04:11:06;;;;;;;11.95;10.68;;;;;;;19.23;100.00;100165.59;5596172;31;33628;-56
2022/06/10 04:14:09;;;;;;;12.25;9.82;;;;;;;19.23;100.00;100166.37;5603434;31;33630;-56
2022/06/10 04:17:11;;;;;;;11.95;10.65;;;;;;;19.31;100.00;100167.41;5603808;31;33697;-56
2022/06/10 04:20:35;;;;;;;10.93;9.50;;;;;;;19.30;100.00;100167.72;5603268;31;34119;-56
2022/06/10 04:23:38;;;;;;;10.98;9.90;;;;;;;19.34;100.00;100166.72;5599138;31;32342;-56
2022/06/10 04:26:40;;;;;;;10.88;9.02;;;;;;;19.32;100.00;100168.19;5601105;31;34294;-56
2022/06/10 04:29:42;;;;;;;10.60;9.50;;;;;;;19.27;100.00;100166.50;5580796;32;33540;-56
2022/06/10 04:32:44;;;;;;;10.18;8.90;;;;;;;19.33;100.00;100175.97;5577548;32;33062;-56
2022/06/10 04:35:49;;;;;;;10.05;9.05;;;;;;;19.33;100.00;100184.13;5582684;32;33658;-56
2022/06/10 04:38:51;;;;;;;11.82;9.30;;;;;;;19.40;99.66;100187.09;5581525;31;32122;-56
2022/06/10 04:41:53;;;;;;;13.00;8.70;;;;;;;19.42;99.62;100197.59;5582177;31;33982;-56
2022/06/10 04:44:58;;;;;;;10.70;8.80;;;;;;;19.49;99.66;100190.44;5580349;31;34196;-56
2022/06/10 04:48:00;;;;;;;10.55;8.98;;;;;;;19.49;100.00;100197.81;5579311;31;33547;-56
2022/06/10 04:51:03;;;;;;;6.53;5.93;;;;;;;19.52;100.00;100197.13;5582537;31;34222;-56
2022/06/10 04:54:06;;;;;;;6.00;4.82;;;;;;;19.53;91.91;100200.63;5579809;31;33803;-56
2022/06/10 04:57:08;;;;;;;5.87;5.30;;;;;;;19.62;90.33;100198.56;5579915;32;33605;-56
2022/06/10 05:00:35;;;;;;;10.00;4.90;;;;;;;19.66;94.12;100202.19;5580388;31;33683;-56
2022/06/10 05:03:37;;;;;;;5.45;4.25;;;;;;;19.74;90.80;100203.22;5581684;31;33640;-56
2022/06/10 05:06:39;;;;;;;5.93;5.10;;;;;;;19.86;89.33;100197.69;5578324;32;33569;-56
2022/06/10 05:09:41;;;;;;;7.57;4.50;;;;;;;19.91;93.31;100205.63;5574425;32;34174;-56
2022/06/10 05:12:44;;;;;;;10.43;5.05;;;;;;;19.82;88.89;100210.41;5560796;32;34288;-56
2022/06/10 05:15:49;;;;;;;7.50;4.80;;;;;;;19.98;92.52;100213.19;5569148;32;35293;-56
2022/06/10 05:18:51;;;;;;;7.60;5.10;;;;;;;20.09;91.23;100216.97;5569215;32;33160;-56
2022/06/10 05:21:53;;;;;;;6.97;4.32;;;;;;;20.23;93.90;100219.28;5565434;32;33580;-56
2022/06/10 05:24:55;;;;;;;8.32;4.78;;;;;;;20.28;88.41;100227.19;5566822;32;34346;-56
2022/06/10 05:27:58;;;;;;;8.45;5.30;;;;;;;20.27;86.37;100228.34;5568288;32;33791;-56
2022/06/10 05:31:00;;;;;;;9.63;4.75;;;;;;;20.34;91.85;100236.69;5568076;32;33641;-56
2022/06/10 05:37:25;;;;;;;5.65;4.78;;;;;;;20.53;86.92;100241.47;5565009;32;34210;-56
2022/06/10 05:40:29;;;;;;;7.05;4.78;;;;;;;20.62;82.64;100240.16;5563720;31;33633;-56
2022/06/10 05:43:33;;;;;;;10.38;5.82;;;;;;;20.71;83.36;100241.94;5568650;32;34349;-56
2022/06/10 05:46:40;;;;;;;6.03;5.12;;;;;;;20.82;82.66;100248.41;5569557;32;33742;-56
2022/06/10 05:49:48;;;;;;;7.55;5.10;;;;;;;20.78;86.22;100255.72;5564265;32;33619;-56
2022/06/10 05:52:50;;;;;;;7.03;5.15;;;;;;;20.71;84.13;100258.28;5568218;32;33672;-56
2022/06/10 05:55:52;;;;;;;6.20;5.10;;;;;;;20.68;87.05;100261.69;5566367;32;33726;-56
2022/06/10 05:58:55;;;;;;;6.85;4.18;;;;;;;20.69;82.98;100264.06;5559723;32;34230;-56
2022/06/10 06:01:57;;;;;;;8.75;4.78;;;;;;;20.71;78.95;100258.28;5566727;32;33546;-56
2022/06/10 06:04:59;;;;;;;7.72;4.97;;;;;;;20.84;83.17;100265.22;5567071;32;34347;-56
2022/06/10 06:08:02;;;;;;;7.07;5.40;;;;;;;20.89;78.22;100267.66;5567593;32;34272;-56
2022/06/10 06:11:04;;;;;;;5.60;4.70;;;;;;;20.87;82.48;100265.31;5568009;32;33606;-56
2022/06/10 06:14:07;;;;;;;8.23;5.25;;;;;;;20.99;79.02;100275.31;5566323;32;34176;-56
2022/06/10 06:17:11;;;;;;;7.45;4.68;;;;;;;21.05;77.85;100273.09;5568000;32;33657;-56
2022/06/10 06:20:26;;;;;;;7.28;4.53;;;;;;;21.13;80.42;100274.87;5567239;32;33777;-56
2022/06/10 06:23:28;;;;;;;6.50;5.05;;;;;;;21.23;77.41;100276.25;5566087;32;33622;-56
2022/06/10 06:26:30;;;;;;;7.15;4.62;;;;;;;21.34;78.07;100275.38;5567302;32;33126;-56
2022/06/10 06:29:33;;;;;;;7.82;4.53;;;;;;;21.41;76.27;100279.41;5565401;32;32935;-56
2022/06/10 06:32:35;;;;;;;7.97;4.35;;;;;;;21.71;78.16;100282.41;5567570;32;34310;-56
2022/06/10 06:35:38;;;;;;;9.65;4.40;;;;;;;21.92;73.56;100285.59;5566084;32;33518;-56
2022/06/10 06:38:41;;;;;;;6.47;4.03;;;;;;;22.02;70.07;100284.22;5567268;32;33688;-56
2022/06/10 06:41:43;;;;;;;10.43;4.20;;;;;;;22.15;71.42;100285.69;5564829;32;33638;-56
2022/06/10 06:44:45;;;;;;;6.55;3.55;;;;;;;22.23;69.15;100286.59;5567815;32;33730;-56
2022/06/10 06:48:10;;;;;;;7.78;4.30;;;;;;;22.27;66.46;100282.00;5568173;32;33234;-56
2022/06/10 06:51:13;;;;;;;6.90;4.10;;;;;;;22.30;69.15;100294.91;5567993;32;33574;-56
2022/06/10 06:54:16;;;;;;;5.53;4.22;;;;;;;22.37;68.65;100289.59;5567268;32;33653;-57
2022/06/10 06:57:20;;;;;;;5.68;3.87;;;;;;;22.32;66.90;100294.53;5566802;31;34527;-56
2022/06/10 07:00:23;;;;;;;5.12;3.80;;;;;;;22.37;68.65;100286.06;5567298;32;34294;-56
2022/06/10 07:03:25;;;;;;;7.25;4.35;;;;;;;22.53;69.67;100294.97;5566753;32;34300;-57
2022/06/10 07:06:27;;;;;;;4.82;4.03;;;;;;;22.61;70.27;100299.38;5567722;32;33210;-56
2022/06/10 07:09:29;;;;;;;5.85;4.20;;;;;;;22.77;68.47;100301.22;5566485;32;35283;-57
2022/06/10 07:12:38;;;;;;;5.80;4.50;;;;;;;22.79;66.95;100298.91;5567411;32;34392;-57
2022/06/10 07:15:53;;;;;;;7.72;4.25;;;;;;;22.88;67.83;100307.66;5568611;32;33771;-57
2022/06/10 07:18:56;;;;;;;7.93;4.03;;;;;;;23.02;65.45;100304.41;5562687;32;34430;-56
2022/06/10 07:21:58;;;;;;;5.32;3.80;;;;;;;23.07;66.33;100302.13;5562742;32;33724;-56
2022/06/10 07:25:07;;;;;;;6.07;3.80;;;;;;;23.04;65.21;100307.56;5566277;32;34416;-56
2022/06/10 07:28:11;;;;;;;5.37;3.90;;;;;;;23.08;66.66;100306.47;5560045;32;33650;-56
2022/06/10 07:31:13;;;;;;;5.95;3.83;;;;;;;23.12;64.19;100310.03;5562715;32;33591;-57
2022/06/10 07:34:16;;;;;;;9.00;3.70;;;;;;;23.30;64.84;100304.06;5566691;32;34409;-57
2022/06/10 07:37:18;;;;;;;6.45;3.83;;;;;;;23.29;60.39;100295.06;5563213;32;33606;-56
2022/06/10 07:44:09;;;;;;;5.50;3.67;;;;;;;23.49;62.16;100295.75;5562950;32;33771;-56
2022/06/10 07:47:13;;;;;;;4.68;3.60;;;;;;;23.54;62.59;100295.44;5563185;32;33631;-57
2022/06/10 07:50:17;;;;;;;4.53;3.40;;;;;;;23.59;60.09;100305.25;5562287;32;34288;-56
2022/06/10 07:53:19;;;;;;;5.20;3.78;;;;;;;23.71;59.09;100307.00;5565965;32;33642;-57
2022/06/10 07:56:22;;;;;;;7.78;4.03;;;;;;;23.83;60.59;100307.56;5564159;31;33706;-56
2022/06/10 07:59:25;;;;;;;5.60;4.05;;;;;;;23.86;61.23;100315.03;5565527;31;33631;-57
2022/06/10 08:02:28;;;;;;;6.30;4.03;;;;;;;23.81;59.29;100318.09;5568056;32;33683;-56
2022/06/10 08:05:31;;;;;;;5.93;3.87;;;;;;;23.84;61.73;100324.75;5568048;32;33603;-57
2022/06/10 08:08:34;;;;;;;9.52;4.45;;;;;;;23.73;60.84;100319.16;5566202;32;33180;-56
2022/06/10 08:11:37;;;;;;;6.53;4.50;;;;;;;23.64;61.96;100322.16;5567253;32;33703;-57
2022/06/10 08:14:41;;;;;;;8.55;4.50;;;;;;;23.56;63.38;100322.41;5559527;32;33639;-56
2022/06/10 08:17:43;;;;;;;9.57;4.50;;;;;;;23.39;61.87;100327.25;5562338;32;33811;-57
2022/06/10 08:24:08;;;;;;;7.82;4.40;;;;;;;23.37;64.13;100328.78;5557627;32;34345;-56
2022/06/10 08:27:11;;;;;;;6.62;4.20;;;;;;;23.30;63.25;100331.41;5557561;32;34521;-56
2022/06/10 08:30:16;;;;;;;6.87;4.43;;;;;;;23.27;66.28;100338.37;5565736;32;34065;-57
2022/06/10 08:33:19;;;;;;;8.20;4.90;;;;;;;23.24;65.00;100341.84;5562762;32;34029;-56
2022/06/10 08:36:22;;;;;;;6.87;4.47;;;;;;;23.33;65.26;100336.13;5567127;32;33635;-56
2022/06/10 08:39:25;;;;;;;7.65;4.62;;;;;;;23.34;65.20;100341.22;5566601;32;33671;-56
2022/06/10 08:42:43;;;;;;;6.43;5.00;;;;;;;23.34;65.32;100333.03;5564927;32;33828;-56
2022/06/10 08:46:17;;;;;;;7.25;4.90;;;;;;;23.39;64.24;100337.41;5564358;32;33618;-57
2022/06/10 08:49:41;;;;;;;8.30;4.83;;;;;;;23.45;64.78;100333.19;5567365;32;33559;-57
2022/06/10 08:53:04;;;;;;;8.18;4.90;;;;;;;23.55;63.44;100337.25;5567018;31;32183;-57
2022/06/10 08:56:40;;;;;;;8.10;4.57;;;;;;;23.58;64.17;100339.25;5559376;32;34467;-57
2022/06/10 08:59:48;;;;;;;7.20;5.03;;;;;;;23.70;65.97;100339.03;5566640;32;34335;-57
2022/06/10 09:03:00;;;;;;;10.65;6.57;;;;;;;23.78;66.16;100339.97;5565492;32;33684;-57
2022/06/10 09:06:08;;;;;;;8.32;5.15;;;;;;;23.89;67.17;100338.13;5564854;32;32568;-56
2022/06/10 09:09:14;;;;;;;9.23;5.00;;;;;;;24.07;65.21;100330.94;5568256;32;34561;-57
2022/06/10 09:12:25;;;;;;;8.63;5.00;;;;;;;24.28;63.73;100340.56;5568167;32;33333;-57
2022/06/10 09:15:31;;;;;;;7.93;5.10;;;;;;;24.35;62.56;100340.66;5565298;32;33621;-57
2022/06/10 09:18:44;;;;;;;9.35;5.35;;;;;;;24.32;62.57;100339.44;5566374;32;33622;-57
2022/06/10 09:21:54;;;;;;;9.57;4.62;;;;;;;24.32;63.80;100333.97;5564909;32;33519;-56
2022/06/10 09:25:22;;;;;;;9.52;4.65;;;;;;;24.48;60.65;100342.00;5563843;32;33732;-56
2022/06/10 09:28:25;;;;;;;6.47;4.55;;;;;;;24.61;59.11;100337.81;5565196;31;33421;-56
2022/06/10 09:31:40;;;;;;;7.47;4.90;;;;;;;24.65;59.56;100346.09;5565399;32;33439;-57
2022/06/10 09:35:15;;;;;;;8.77;4.57;;;;;;;24.65;58.05;100335.13;5565721;32;33693;-58
2022/06/10 09:38:53;;;;;;;10.05;5.00;;;;;;;24.78;58.16;100344.66;5562155;32;33786;-56
2022/06/10 09:42:02;;;;;;;10.52;5.37;;;;;;;24.82;58.22;100339.19;5565244;32;33575;-56
2022/06/10 09:46:00;;;;;;;18.83;5.62;;;;;;;24.91;58.81;100347.12;5555413;32;33901;-57
2022/06/10 09:49:46;;;;;;;6.90;5.12;;;;;;;24.84;59.25;100343.13;5527888;31;33693;-56
2022/06/10 09:53:31;;;;;;;6.43;4.72;;;;;;;24.95;57.77;100345.19;5555361;32;33666;-56
2022/06/10 09:57:00;;;;;;;8.13;5.03;;;;;;;24.98;58.97;100345.22;5566739;32;33098;-56
2022/06/10 10:00:13;;;;;;;8.55;5.07;;;;;;;25.00;60.00;100342.91;5546185;32;33768;-56
2022/06/10 10:03:51;;;;;;;6.62;4.93;;;;;;;25.08;59.17;100349.22;5567145;32;32982;-56
2022/06/10 10:07:19;;;;;;;7.35;4.97;;;;;;;25.12;58.67;100339.09;5558843;31;33654;-56
2022/06/10 10:10:27;;;;;;;8.73;5.00;;;;;;;25.12;58.21;100347.31;5551890;32;33631;-57
2022/06/10 10:13:46;;;;;;;8.38;5.32;;;;;;;25.14;58.54;100344.22;5566210;32;34413;-56
2022/06/10 10:17:31;;;;;;;10.40;4.90;;;;;;;25.23;58.79;100350.13;5553836;32;31559;-56
2022/06/10 10:20:56;;;;;;;9.10;4.95;;;;;;;25.34;57.40;100348.28;5564335;32;34211;-57
2022/06/10 10:23:59;;;;;;;7.40;4.97;;;;;;;25.33;58.00;100349.44;5561545;32;33803;-58
2022/06/10 10:27:02;;;;;;;7.15;4.25;;;;;;;25.34;58.92;100348.28;5565285;31;33807;-57
2022/06/10 10:30:14;;;;;;;13.18;4.82;;;;;;;25.40;53.44;100351.47;5568762;32;33771;-57
2022/06/10 10:33:16;;;;;;;12.20;4.35;;;;;;;25.43;56.46;100356.97;5567659;32;33651;-57
2022/06/10 10:36:28;;;;;;;7.35;4.32;;;;;;;25.42;56.12;100349.09;5565442;32;33732;-57
2022/06/10 10:39:50;;;;;;;10.15;4.80;;;;;;;25.54;54.60;100343.31;5566222;32;33666;-57
2022/06/10 10:43:04;;;;;;;6.60;4.93;;;;;;;25.52;56.33;100337.41;5568006;32;33648;-57
2022/06/10 10:46:33;;;;;;;6.90;3.90;;;;;;;25.67;56.26;100344.56;5563922;32;33623;-57
2022/06/10 10:49:56;;;;;;;8.75;4.03;;;;;;;25.58;55.25;100344.12;5566021;32;34383;-57
2022/06/10 10:53:02;;;;;;;7.32;4.25;;;;;;;25.66;55.46;100344.94;5567478;32;34265;-57
2022/06/10 10:56:06;;;;;;;6.28;4.70;;;;;;;25.72;54.51;100338.69;5566384;31;34313;-57
2022/06/10 10:59:39;;;;;;;6.90;4.60;;;;;;;25.76;54.45;100341.47;5564707;32;32189;-57
2022/06/10 11:02:51;;;;;;;6.43;4.40;;;;;;;25.74;56.82;100330.88;5564078;32;33735;-57
2022/06/10 11:05:54;;;;;;;10.65;5.07;;;;;;;25.83;57.51;100346.22;5566940;32;33676;-57
2022/06/10 11:09:23;;;;;;;8.43;5.40;;;;;;;25.86;59.64;100338.03;5567044;32;33573;-57
2022/06/10 11:12:27;;;;;;;6.43;5.03;;;;;;;25.88;58.88;100343.13;5568231;32;33814;-57
2022/06/10 11:15:36;;;;;;;8.13;4.97;;;;;;;25.86;57.51;100339.97;5558477;32;34380;-57
2022/06/10 11:18:46;;;;;;;7.18;4.62;;;;;;;25.83;56.69;100338.81;5569198;32;33806;-57
2022/06/10 11:22:01;;;;;;;6.28;5.10;;;;;;;25.88;56.69;100326.66;5563643;32;34401;-57
2022/06/10 11:25:14;;;;;;;12.02;5.20;;;;;;;25.91;56.15;100321.16;5566245;32;33380;-57
2022/06/10 11:28:21;;;;;;;8.30;4.93;;;;;;;25.96;56.83;100322.75;5568716;32;33718;-57
2022/06/10 11:31:45;;;;;;;6.90;5.15;;;;;;;25.95;58.63;100332.19;5568029;32;34013;-58
2022/06/10 11:34:58;;;;;;;6.50;4.95;;;;;;;26.00;58.70;100327.09;5568784;32;33806;-57
2022/06/10 11:38:08;;;;;;;7.05;5.87;;;;;;;25.96;57.83;100318.06;5566619;32;33829;-57
2022/06/10 11:41:14;;;;;;;7.18;4.87;;;;;;;25.97;58.23;100310.63;5555537;32;33735;-57
2022/06/10 11:44:21;;;;;;;9.80;5.53;;;;;;;26.08;59.08;100308.69;5555406;32;33683;-58
2022/06/10 11:47:33;;;;;;;8.43;5.40;;;;;;;26.25;59.39;100316.19;5563717;32;33672;-57
2022/06/10 11:50:57;;;;;;;9.63;5.37;;;;;;;26.27;58.95;100326.81;5567534;32;33765;-57
2022/06/10 11:54:41;;;;;;;6.78;4.72;;;;;;;26.22;57.50;100322.47;5567977;32;33713;-57
2022/06/10 12:01:20;;;;;;;6.07;4.85;;;;;;;26.27;60.33;100304.81;5495844;31;34538;-57
2022/06/10 12:04:30;;;;;;;8.77;5.35;;;;;;;26.25;58.36;100299.69;5558130;32;33877;-57
2022/06/10 12:07:38;;;;;;;7.50;4.97;;;;;;;26.42;57.35;100298.19;5564912;32;33771;-57
2022/06/10 12:10:52;;;;;;;6.53;4.75;;;;;;;26.41;55.62;100298.56;5567442;32;33599;-57
2022/06/10 12:14:01;;;;;;;7.65;5.00;;;;;;;26.35;55.05;100297.38;5567826;32;33742;-57
2022/06/10 12:17:20;;;;;;;8.15;5.20;;;;;;;26.39;55.79;100287.16;5568452;32;33469;-57
2022/06/10 12:20:47;;;;;;;6.50;5.03;;;;;;;26.46;55.26;100277.00;5567571;32;34419;-57
2022/06/10 12:23:50;;;;;;;7.05;5.32;;;;;;;26.51;56.11;100269.56;5570368;32;33706;-57
2022/06/10 12:27:00;;;;;;;7.12;4.70;;;;;;;26.58;56.99;100275.06;5570333;31;33704;-57
2022/06/10 12:30:12;;;;;;;8.43;4.90;;;;;;;26.53;55.71;100275.47;5569599;32;33247;-57
2022/06/10 12:33:33;;;;;;;9.65;4.60;;;;;;;26.59;56.64;100271.13;5570659;32;34480;-57
2022/06/10 12:36:43;;;;;;;7.97;5.20;;;;;;;26.56;55.36;100261.72;5570820;32;33860;-57
2022/06/10 12:39:54;;;;;;;5.72;4.55;;;;;;;26.71;53.94;100268.00;5570784;32;34332;-57
2022/06/10 12:43:05;;;;;;;8.45;5.00;;;;;;;26.65;57.03;100259.34;5570830;32;33472;-57
2022/06/10 12:46:49;;;;;;;9.73;4.95;;;;;;;26.73;54.96;100253.87;5570687;32;33776;-57
2022/06/10 12:50:00;;;;;;;8.75;4.70;;;;;;;26.79;55.91;100257.78;5569519;32;33669;-57
2022/06/10 12:53:05;;;;;;;7.07;4.47;;;;;;;26.91;54.60;100249.12;5570287;32;34425;-57
2022/06/10 12:56:22;;;;;;;9.10;5.10;;;;;;;27.05;53.18;100264.81;5570564;32;34410;-57
2022/06/10 12:59:27;;;;;;;7.35;4.95;;;;;;;27.08;53.85;100283.28;5570556;32;34229;-57
2022/06/10 13:02:42;;;;;;;5.28;4.78;;;;;;;27.08;54.36;100272.28;5569658;32;34364;-58
2022/06/10 13:05:48;;;;;;;6.82;5.12;;;;;;;27.07;55.00;100279.75;5570031;32;33658;-57
2022/06/10 13:08:58;;;;;;;7.00;4.75;;;;;;;27.08;55.55;100264.81;5570361;32;34298;-57
2022/06/10 13:12:06;;;;;;;10.60;5.28;;;;;;;27.15;50.81;100269.56;5569316;32;34237;-57
2022/06/10 13:15:24;;;;;;;9.45;5.50;;;;;;;27.06;53.84;100272.69;5565766;32;34333;-57
2022/06/10 13:18:33;;;;;;;7.10;5.37;;;;;;;27.02;55.06;100262.88;5569202;32;33767;-57
2022/06/10 13:21:40;;;;;;;12.40;5.47;;;;;;;26.97;55.54;100266.03;5570358;32;33625;-57
2022/06/10 13:24:42;;;;;;;8.57;4.70;;;;;;;26.84;55.50;100276.62;5570115;32;34194;-57
2022/06/10 13:27:49;;;;;;;13.13;5.50;;;;;;;26.77;56.42;100266.44;5570264;32;33636;-57
2022/06/10 13:31:02;;;;;;;15.13;5.78;;;;;;;26.81;55.35;100260.94;5569452;32;33623;-58
2022/06/10 13:34:06;;;;;;;10.13;5.00;;;;;;;26.97;55.01;100271.53;5569445;32;34115;-57
2022/06/10 13:37:20;;;;;;;8.27;4.68;;;;;;;26.91;53.75;100271.13;5570400;32;33679;-57
2022/06/10 13:40:26;;;;;;;9.85;5.32;;;;;;;26.86;53.95;100266.81;5570121;32;34405;-57
2022/06/10 13:43:30;;;;;;;;;;;;;;;26.79;54.59;100271.53;5570309;32;33679;-57
2022/06/10 13:46:33;;;;;;;6.40;5.62;;;;;;;26.86;54.27;100252.28;5570077;32;33548;-57
2022/06/10 13:49:51;;;;;;;6.90;5.10;;;;;;;26.82;56.09;100255.03;5569895;32;34354;-57
2022/06/10 13:53:05;;;;;;;7.78;5.62;;;;;;;26.88;55.08;100263.66;5569860;32;33730;-57
2022/06/10 13:56:14;;;;;;;7.85;5.10;;;;;;;26.87;55.27;100262.09;5570164;32;34182;-58
2022/06/10 13:59:38;;;;;;;9.73;5.12;;;;;;;27.00;55.53;100271.53;5569737;32;33785;-57
2022/06/10 14:02:48;;;;;;;8.20;5.07;;;;;;;26.89;53.74;100268.00;5569778;32;34513;-57
2022/06/10 14:05:57;;;;;;;7.53;5.20;;;;;;;26.90;54.77;100264.06;5569822;32;33704;-57
2022/06/10 14:09:18;;;;;;;10.52;5.10;;;;;;;26.87;54.33;100265.62;5569982;32;34374;-57
2022/06/10 14:12:27;;;;;;;9.50;5.40;;;;;;;26.90;53.88;100266.81;5569892;32;34528;-57
2022/06/10 14:15:32;;;;;;;12.23;5.43;;;;;;;27.01;53.07;100262.09;5569548;32;33799;-57
2022/06/10 14:18:39;;;;;;;8.00;5.37;;;;;;;26.96;55.29;100259.75;5569513;32;34464;-57
2022/06/10 14:21:42;;;;;;;9.25;4.80;;;;;;;26.91;53.17;100260.13;5569573;32;33783;-57
2022/06/10 14:25:20;;;;;;;8.00;4.70;;;;;;;26.94;54.51;100251.88;5569551;32;33633;-57
2022/06/10 14:28:25;;;;;;;8.82;4.82;;;;;;;27.14;49.98;100243.22;5569606;32;34700;-57
2022/06/10 14:31:30;;;;;;;6.90;4.25;;;;;;;26.95;49.26;100241.66;5568410;32;33607;-57
2022/06/10 14:34:33;;;;;;;6.60;4.20;;;;;;;26.88;49.56;100245.19;5568754;32;33552;-57
2022/06/10 14:37:39;;;;;;;7.30;4.68;;;;;;;26.96;48.98;100247.97;5567568;32;34439;-57
2022/06/10 14:40:54;;;;;;;7.95;4.85;;;;;;;26.92;50.64;100246.00;5568650;32;33797;-57
2022/06/10 14:44:16;;;;;;;9.98;4.82;;;;;;;26.88;50.09;100260.91;5567520;32;32353;-57
2022/06/10 14:47:29;;;;;;;11.25;4.53;;;;;;;26.86;50.76;100253.06;5569782;32;34257;-57
2022/06/10 14:51:03;;;;;;;6.07;4.75;;;;;;;26.77;50.89;100262.91;5569690;32;33678;-57
2022/06/10 14:54:19;;;;;;;6.03;4.72;;;;;;;26.72;49.40;100283.31;5569584;32;34384;-57
2022/06/10 14:57:25;;;;;;;6.25;4.70;;;;;;;26.65;50.77;100283.31;5569845;32;34342;-57
2022/06/10 15:00:30;;;;;;;7.62;4.53;;;;;;;26.51;50.30;100283.31;5569494;32;33661;-57
2022/06/10 15:03:32;;;;;;;6.13;4.47;;;;;;;26.40;50.41;100275.78;5569595;32;34371;-58
2022/06/10 15:06:38;;;;;;;6.37;4.65;;;;;;;26.34;51.63;100273.81;5569688;32;33655;-57
2022/06/10 15:09:42;;;;;;;7.05;4.50;;;;;;;26.44;51.95;100275.81;5568946;32;33759;-57
2022/06/10 15:12:45;;;;;;;5.18;4.40;;;;;;;26.51;52.07;100288.81;5569575;32;33642;-57
2022/06/10 15:15:48;;;;;;;8.23;4.70;;;;;;;26.48;51.92;100293.88;5569458;32;34422;-57
2022/06/10 15:18:50;;;;;;;6.78;5.05;;;;;;;26.47;52.16;100311.56;5569506;32;33644;-57
